EDHK/KEL METAR and TAF weather

Enter ICAO airport designator
Station Type Date Time Source
EDHK METAR 2022/06/28 15:50 UTC NOAA

EDHK 281550Z VRB04KT CAVOK 22/10 Q1020


Station Type Date Time Source
EDHK Decoded METAR 2022/06/28 15:50 UTC NOAA

Kiel / Holtenau Civilian, Germany (EDHK) 54-23N 010-10E
Jun 28, 2022 - 11:50 AM EDT / 2022.06.28 1550 UTC
Wind: Variable at 5 MPH (4 KT):0
Visibility: greater than 7 mile(s):0
Temperature: 71 F (22 C)
Dew Point: 50 F (10 C)
Relative Humidity: 46%
Pressure (altimeter): 30.12 in. Hg (1020 hPa)
ob: EDHK 281550Z VRB04KT CAVOK 22/10 Q1020
cycle: 16

Station Type Date Time Source
EDHK TAF 2013/08/11 06:39 UTC NOAA

TAF EDHK 110633Z 1106/1118 24005KT 9999 SCT030
BECMG 1106/1109 25010KT
TEMPO 1106/1118 27015G25KT 4500 SHRA BKN012CB

Example: see airport list